sensor_id;sensor_type;location;lat;lon;timestamp;pressure;altitude;pressure_sealevel;temperature;humidity
35519;BME280;21627;48.216;16.482;2023-02-18T00:01:45;100144.13;;;12.73;84.92
35519;BME280;21627;48.216;16.482;2023-02-18T00:04:12;100144.09;;;12.79;84.05
35519;BME280;21627;48.216;16.482;2023-02-18T00:06:39;100122.53;;;12.63;84.71
35519;BME280;21627;48.216;16.482;2023-02-18T00:09:06;100124.22;;;12.81;83.49
35519;BME280;21627;48.216;16.482;2023-02-18T00:11:36;100150.16;;;12.72;84.97
35519;BME280;21627;48.216;16.482;2023-02-18T00:14:09;100141.53;;;12.68;84.70
35519;BME280;21627;48.216;16.482;2023-02-18T00:16:36;100156.22;;;12.82;83.25
35519;BME280;21627;48.216;16.482;2023-02-18T00:19:07;100150.16;;;12.76;83.68
35519;BME280;21627;48.216;16.482;2023-02-18T00:21:35;100151.03;;;12.78;83.87
35519;BME280;21627;48.216;16.482;2023-02-18T00:24:05;100145.84;;;12.78;83.18
35519;BME280;21627;48.216;16.482;2023-02-18T00:26:34;100161.38;;;12.91;82.61
35519;BME280;21627;48.216;16.482;2023-02-18T00:29:02;100161.41;;;12.88;82.95
35519;BME280;21627;48.216;16.482;2023-02-18T00:31:34;100148.41;;;12.89;82.58
35519;BME280;21627;48.216;16.482;2023-02-18T00:34:04;100149.25;;;12.94;82.11
35519;BME280;21627;48.216;16.482;2023-02-18T00:36:34;100164.81;;;12.99;81.76
35519;BME280;21627;48.216;16.482;2023-02-18T00:39:09;100169.16;;;12.94;82.55
35519;BME280;21627;48.216;16.482;2023-02-18T00:41:37;100171.72;;;13.00;81.68
35519;BME280;21627;48.216;16.482;2023-02-18T00:44:05;100163.94;;;13.00;81.62
35519;BME280;21627;48.216;16.482;2023-02-18T00:46:33;100170.03;;;12.91;82.15
35519;BME280;21627;48.216;16.482;2023-02-18T00:49:01;100171.75;;;12.85;82.72
35519;BME280;21627;48.216;16.482;2023-02-18T00:51:29;100177.84;;;12.84;82.75
35519;BME280;21627;48.216;16.482;2023-02-18T00:53:57;100177.84;;;12.81;83.25
35519;BME280;21627;48.216;16.482;2023-02-18T00:56:25;100170.06;;;12.70;83.68
35519;BME280;21627;48.216;16.482;2023-02-18T00:58:52;100182.19;;;12.80;83.58
35519;BME280;21627;48.216;16.482;2023-02-18T01:01:20;100170.94;;;12.72;83.73
35519;BME280;21627;48.216;16.482;2023-02-18T01:03:50;100181.28;;;12.75;83.59
35519;BME280;21627;48.216;16.482;2023-02-18T01:06:17;100175.25;;;12.79;83.01
35519;BME280;21627;48.216;16.482;2023-02-18T01:08:45;100170.91;;;12.80;83.51
35519;BME280;21627;48.216;16.482;2023-02-18T01:11:12;100177.84;;;12.71;84.14
35519;BME280;21627;48.216;16.482;2023-02-18T01:13:41;100157.97;;;12.66;84.40
35519;BME280;21627;48.216;16.482;2023-02-18T01:16:09;100159.69;;;12.70;84.27
35519;BME280;21627;48.216;16.482;2023-02-18T01:18:40;100160.53;;;12.72;84.04
35519;BME280;21627;48.216;16.482;2023-02-18T01:21:08;100155.31;;;12.87;83.29
35519;BME280;21627;48.216;16.482;2023-02-18T01:23:39;100139.78;;;12.83;83.44
35519;BME280;21627;48.216;16.482;2023-02-18T01:26:07;100144.97;;;12.78;83.88
35519;BME280;21627;48.216;16.482;2023-02-18T01:28:36;100133.75;;;12.64;84.61
35519;BME280;21627;48.216;16.482;2023-02-18T01:31:06;100137.16;;;12.89;82.98
35519;BME280;21627;48.216;16.482;2023-02-18T01:33:34;100122.47;;;12.88;82.90
35519;BME280;21627;48.216;16.482;2023-02-18T01:36:02;100120.78;;;12.77;83.39
35519;BME280;21627;48.216;16.482;2023-02-18T01:38:30;100113.81;;;12.86;82.99
35519;BME280;21627;48.216;16.482;2023-02-18T01:40:57;100125.94;;;12.81;83.59
35519;BME280;21627;48.216;16.482;2023-02-18T01:43:25;100116.47;;;12.66;84.25
35519;BME280;21627;48.216;16.482;2023-02-18T01:48:54;100117.31;;;12.80;84.24
35519;BME280;21627;48.216;16.482;2023-02-18T01:51:30;100128.53;;;12.81;83.88
35519;BME280;21627;48.216;16.482;2023-02-18T01:54:15;100132.88;;;12.72;84.71
35519;BME280;21627;48.216;16.482;2023-02-18T01:59:45;100129.44;;;12.69;85.17
35519;BME280;21627;48.216;16.482;2023-02-18T02:02:19;100119.00;;;12.90;83.63
35519;BME280;21627;48.216;16.482;2023-02-18T02:04:48;100121.56;;;12.87;83.70
35519;BME280;21627;48.216;16.482;2023-02-18T02:07:18;100127.69;;;12.78;84.34
35519;BME280;21627;48.216;16.482;2023-02-18T02:09:47;100116.41;;;12.81;84.39
35519;BME280;21627;48.216;16.482;2023-02-18T02:15:33;100116.38;;;12.87;83.68
35519;BME280;21627;48.216;16.482;2023-02-18T02:21:28;100118.97;;;12.87;83.74
35519;BME280;21627;48.216;16.482;2023-02-18T02:30:58;100114.63;;;13.03;82.25
35519;BME280;21627;48.216;16.482;2023-02-18T02:34:31;100116.38;;;12.93;83.06
35519;BME280;21627;48.216;16.482;2023-02-18T02:37:17;100121.56;;;12.87;83.51
35519;BME280;21627;48.216;16.482;2023-02-18T02:42:48;100115.56;;;12.81;83.69
35519;BME280;21627;48.216;16.482;2023-02-18T02:48:42;100116.47;;;12.70;84.58
35519;BME280;21627;48.216;16.482;2023-02-18T02:51:37;100125.06;;;12.82;83.61
35519;BME280;21627;48.216;16.482;2023-02-18T02:54:27;100114.69;;;12.88;82.73
35519;BME280;21627;48.216;16.482;2023-02-18T02:57:08;100117.25;;;12.91;83.08
35519;BME280;21627;48.216;16.482;2023-02-18T02:59:38;100109.38;;;13.08;81.32
35519;BME280;21627;48.216;16.482;2023-02-18T03:16:56;100112.91;;;12.99;82.69
35519;BME280;21627;48.216;16.482;2023-02-18T03:19:41;100105.16;;;12.93;83.06
35519;BME280;21627;48.216;16.482;2023-02-18T03:22:28;100112.94;;;12.91;83.82
35519;BME280;21627;48.216;16.482;2023-02-18T03:24:57;100107.78;;;12.85;84.13
35519;BME280;21627;48.216;16.482;2023-02-18T03:27:50;100114.66;;;12.91;84.11
35519;BME280;21627;48.216;16.482;2023-02-18T03:30:53;100111.22;;;12.81;84.71
35519;BME280;21627;48.216;16.482;2023-02-18T03:33:30;100105.22;;;12.68;85.46
35519;BME280;21627;48.216;16.482;2023-02-18T03:36:02;100112.13;;;12.69;85.78
35519;BME280;21627;48.216;16.482;2023-02-18T03:41:00;100112.16;;;12.59;86.80
35519;BME280;21627;48.216;16.482;2023-02-18T03:43:28;100112.19;;;12.52;86.65
35519;BME280;21627;48.216;16.482;2023-02-18T03:45:56;100119.97;;;12.52;87.11
35519;BME280;21627;48.216;16.482;2023-02-18T03:48:24;100118.25;;;12.53;87.33
35519;BME280;21627;48.216;16.482;2023-02-18T03:50:51;100120.81;;;12.58;87.31
35519;BME280;21627;48.216;16.482;2023-02-18T03:53:18;100118.22;;;12.51;86.74
35519;BME280;21627;48.216;16.482;2023-02-18T03:55:46;100113.91;;;12.40;87.57
35519;BME280;21627;48.216;16.482;2023-02-18T03:58:13;100112.19;;;12.39;87.80
35519;BME280;21627;48.216;16.482;2023-02-18T04:00:40;100128.63;;;12.39;88.08
35519;BME280;21627;48.216;16.482;2023-02-18T04:03:11;100126.88;;;12.46;87.48
35519;BME280;21627;48.216;16.482;2023-02-18T04:05:38;100128.63;;;12.44;87.82
35519;BME280;21627;48.216;16.482;2023-02-18T04:08:05;100106.16;;;12.32;87.78
35519;BME280;21627;48.216;16.482;2023-02-18T04:10:32;100126.88;;;12.40;88.29
35519;BME280;21627;48.216;16.482;2023-02-18T04:13:03;100110.44;;;12.47;88.01
35519;BME280;21627;48.216;16.482;2023-02-18T04:15:31;100121.72;;;12.37;87.90
35519;BME280;21627;48.216;16.482;2023-02-18T04:17:58;100132.09;;;12.29;88.67
35519;BME280;21627;48.216;16.482;2023-02-18T04:20:28;100122.56;;;12.39;88.26
35519;BME280;21627;48.216;16.482;2023-02-18T04:22:56;100112.22;;;12.40;87.44
35519;BME280;21627;48.216;16.482;2023-02-18T04:25:23;100125.16;;;12.37;87.87
35519;BME280;21627;48.216;16.482;2023-02-18T04:27:50;100125.19;;;12.40;87.48
35519;BME280;21627;48.216;16.482;2023-02-18T04:30:18;100111.34;;;12.30;87.90
35519;BME280;21627;48.216;16.482;2023-02-18T04:32:45;100123.44;;;12.41;87.34
35519;BME280;21627;48.216;16.482;2023-02-18T04:35:16;100121.72;;;12.47;86.88
35519;BME280;21627;48.216;16.482;2023-02-18T04:37:43;100131.19;;;12.42;86.98
35519;BME280;21627;48.216;16.482;2023-02-18T04:40:11;100133.78;;;12.42;86.89
35519;BME280;21627;48.216;16.482;2023-02-18T04:42:41;100120.88;;;12.30;87.92
35519;BME280;21627;48.216;16.482;2023-02-18T04:45:08;100135.53;;;12.39;87.73
35519;BME280;21627;48.216;16.482;2023-02-18T04:47:36;100139.00;;;12.39;87.35
35519;BME280;21627;48.216;16.482;2023-02-18T04:50:04;100140.72;;;12.43;87.32
35519;BME280;21627;48.216;16.482;2023-02-18T04:52:34;100135.53;;;12.52;86.42
35519;BME280;21627;48.216;16.482;2023-02-18T04:55:02;100133.78;;;12.42;86.36
35519;BME280;21627;48.216;16.482;2023-02-18T04:57:30;100138.97;;;12.54;85.75
35519;BME280;21627;48.216;16.482;2023-02-18T04:59:57;100143.31;;;12.42;86.46
35519;BME280;21627;48.216;16.482;2023-02-18T05:02:24;100142.44;;;12.53;85.90
35519;BME280;21627;48.216;16.482;2023-02-18T05:04:55;100146.78;;;12.41;86.54
35519;BME280;21627;48.216;16.482;2023-02-18T05:07:25;100159.72;;;12.42;86.41
35519;BME280;21627;48.216;16.482;2023-02-18T05:09:52;100157.97;;;12.60;85.13
35519;BME280;21627;48.216;16.482;2023-02-18T05:12:20;100152.81;;;12.53;85.82
35519;BME280;21627;48.216;16.482;2023-02-18T05:14:47;100161.47;;;12.51;85.21
35519;BME280;21627;48.216;16.482;2023-02-18T05:17:14;100171.84;;;12.48;85.86
35519;BME280;21627;48.216;16.482;2023-02-18T05:19:41;100167.50;;;12.39;86.13
35519;BME280;21627;48.216;16.482;2023-02-18T05:22:08;100170.97;;;12.50;85.63
35519;BME280;21627;48.216;16.482;2023-02-18T05:24:39;100177.88;;;12.54;85.26
35519;BME280;21627;48.216;16.482;2023-02-18T05:27:06;100175.31;;;12.48;85.15
35519;BME280;21627;48.216;16.482;2023-02-18T05:29:33;100169.25;;;12.43;85.79
35519;BME280;21627;48.216;16.482;2023-02-18T05:32:04;100162.34;;;12.50;85.20
35519;BME280;21627;48.216;16.482;2023-02-18T05:34:31;100172.69;;;12.51;85.00
35519;BME280;21627;48.216;16.482;2023-02-18T05:36:58;100182.22;;;12.55;85.29
35519;BME280;21627;48.216;16.482;2023-02-18T05:39:25;100160.59;;;12.41;85.92
35519;BME280;21627;48.216;16.482;2023-02-18T05:41:53;100179.63;;;12.52;85.41
35519;BME280;21627;48.216;16.482;2023-02-18T05:44:20;100170.09;;;12.48;85.05
35519;BME280;21627;48.216;16.482;2023-02-18T05:47:04;100187.38;;;12.49;85.25
35519;BME280;21627;48.216;16.482;2023-02-18T05:49:33;100172.69;;;12.42;85.61
35519;BME280;21627;48.216;16.482;2023-02-18T05:52:01;100182.22;;;12.42;85.89
35519;BME280;21627;48.216;16.482;2023-02-18T05:54:28;100185.69;;;12.50;85.75
35519;BME280;21627;48.216;16.482;2023-02-18T05:56:56;100180.50;;;12.50;85.77
35519;BME280;21627;48.216;16.482;2023-02-18T05:59:24;100192.59;;;12.46;85.89
35519;BME280;21627;48.216;16.482;2023-02-18T06:01:51;100183.97;;;12.35;86.08
35519;BME280;21627;48.216;16.482;2023-02-18T06:04:18;100187.41;;;12.40;86.06
35519;BME280;21627;48.216;16.482;2023-02-18T06:06:46;100183.09;;;12.41;85.58
35519;BME280;21627;48.216;16.482;2023-02-18T06:09:13;100192.59;;;12.48;85.73
35519;BME280;21627;48.216;16.482;2023-02-18T06:11:41;100183.97;;;12.35;86.21
35519;BME280;21627;48.216;16.482;2023-02-18T06:14:09;100199.50;;;12.49;85.65
35519;BME280;21627;48.216;16.482;2023-02-18T06:16:38;100201.22;;;12.56;85.35
35519;BME280;21627;48.216;16.482;2023-02-18T06:19:06;100202.09;;;12.58;85.50
35519;BME280;21627;48.216;16.482;2023-02-18T06:21:34;100182.22;;;12.45;85.76
35519;BME280;21627;48.216;16.482;2023-02-18T06:24:01;100196.03;;;12.51;85.83
35519;BME280;21627;48.216;16.482;2023-02-18T06:26:29;100192.59;;;12.55;85.58
35519;BME280;21627;48.216;16.482;2023-02-18T06:28:56;100198.63;;;12.51;85.62
35519;BME280;21627;48.216;16.482;2023-02-18T06:31:27;100189.13;;;12.58;85.30
35519;BME280;21627;48.216;16.482;2023-02-18T06:33:54;100201.22;;;12.51;85.99
35519;BME280;21627;48.216;16.482;2023-02-18T06:36:21;100205.56;;;12.48;86.48
35519;BME280;21627;48.216;16.482;2023-02-18T06:38:49;100199.50;;;12.52;86.45
35519;BME280;21627;48.216;16.482;2023-02-18T06:41:16;100177.91;;;12.45;86.80
35519;BME280;21627;48.216;16.482;2023-02-18T06:43:43;100202.09;;;12.50;86.86
35519;BME280;21627;48.216;16.482;2023-02-18T06:46:10;100192.56;;;12.62;87.02
35519;BME280;21627;48.216;16.482;2023-02-18T06:48:38;100188.25;;;12.54;86.20
35519;BME280;21627;48.216;16.482;2023-02-18T06:51:05;100200.38;;;12.51;87.37
35519;BME280;21627;48.216;16.482;2023-02-18T06:53:32;100196.06;;;12.53;87.90
35519;BME280;21627;48.216;16.482;2023-02-18T06:56:00;100192.59;;;12.55;87.69
35519;BME280;21627;48.216;16.482;2023-02-18T06:58:27;100183.94;;;12.53;87.34
35519;BME280;21627;48.216;16.482;2023-02-18T07:00:57;100183.94;;;12.50;87.74
35519;BME280;21627;48.216;16.482;2023-02-18T07:03:24;100182.19;;;12.49;88.65
35519;BME280;21627;48.216;16.482;2023-02-18T07:05:55;100174.44;;;12.51;88.63
35519;BME280;21627;48.216;16.482;2023-02-18T07:08:22;100174.44;;;12.46;88.65
35519;BME280;21627;48.216;16.482;2023-02-18T07:10:49;100181.34;;;12.61;88.47
35519;BME280;21627;48.216;16.482;2023-02-18T07:13:17;100185.66;;;12.77;86.79
35519;BME280;21627;48.216;16.482;2023-02-18T07:15:47;100189.09;;;12.73;86.83
35519;BME280;21627;48.216;16.482;2023-02-18T07:18:14;100179.56;;;12.72;87.88
35519;BME280;21627;48.216;16.482;2023-02-18T07:20:41;100189.97;;;12.75;88.28
35519;BME280;21627;48.216;16.482;2023-02-18T07:23:09;100195.13;;;12.83;87.81
35519;BME280;21627;48.216;16.482;2023-02-18T07:25:37;100191.66;;;12.89;87.28
35519;BME280;21627;48.216;16.482;2023-02-18T07:28:04;100188.19;;;12.94;87.23
35519;BME280;21627;48.216;16.482;2023-02-18T07:30:31;100179.53;;;12.92;87.42
35519;BME280;21627;48.216;16.482;2023-02-18T07:32:58;100180.38;;;13.04;86.78
35519;BME280;21627;48.216;16.482;2023-02-18T07:35:28;100182.94;;;13.11;86.36
35519;BME280;21627;48.216;16.482;2023-02-18T07:37:56;100184.66;;;13.08;86.53
35519;BME280;21627;48.216;16.482;2023-02-18T07:40:23;100187.28;;;13.06;87.17
35519;BME280;21627;48.216;16.482;2023-02-18T07:42:51;100184.66;;;13.08;86.86
35519;BME280;21627;48.216;16.482;2023-02-18T07:45:18;100182.94;;;13.11;87.31
35519;BME280;21627;48.216;16.482;2023-02-18T07:47:45;100180.31;;;13.14;87.14
35519;BME280;21627;48.216;16.482;2023-02-18T07:50:16;100177.75;;;13.10;87.56
35519;BME280;21627;48.216;16.482;2023-02-18T07:52:43;100180.34;;;13.16;87.32
35519;BME280;21627;48.216;16.482;2023-02-18T07:55:10;100190.69;;;13.27;86.56
35519;BME280;21627;48.216;16.482;2023-02-18T07:57:38;100176.88;;;13.18;86.78
35519;BME280;21627;48.216;16.482;2023-02-18T08:00:23;100182.91;;;13.24;86.93
35519;BME280;21627;48.216;16.482;2023-02-18T08:02:50;100173.38;;;13.27;86.80
35519;BME280;21627;48.216;16.482;2023-02-18T08:05:24;100178.50;;;13.42;86.60
35519;BME280;21627;48.216;16.482;2023-02-18T08:07:51;100182.84;;;13.48;85.93
35519;BME280;21627;48.216;16.482;2023-02-18T08:10:19;100178.47;;;13.53;84.63
35519;BME280;21627;48.216;16.482;2023-02-18T08:12:46;100189.72;;;13.52;85.27
35519;BME280;21627;48.216;16.482;2023-02-18T08:15:13;100178.47;;;13.53;84.91
35519;BME280;21627;48.216;16.482;2023-02-18T08:17:41;100181.91;;;13.57;85.37
35519;BME280;21627;48.216;16.482;2023-02-18T08:20:11;100196.56;;;13.67;85.45
35519;BME280;21627;48.216;16.482;2023-02-18T08:22:42;100199.97;;;13.81;84.16
35519;BME280;21627;48.216;16.482;2023-02-18T08:25:09;100179.94;;;13.93;83.24
35519;BME280;21627;48.216;16.482;2023-02-18T08:27:54;100178.94;;;14.11;83.20
35519;BME280;21627;48.216;16.482;2023-02-18T08:30:21;100178.75;;;14.37;81.07
35519;BME280;21627;48.216;16.482;2023-02-18T08:32:52;100176.16;;;14.37;80.48
35519;BME280;21627;48.216;16.482;2023-02-18T08:35:20;100164.09;;;14.26;81.14
35519;BME280;21627;48.216;16.482;2023-02-18T08:37:47;100176.16;;;14.34;80.71
35519;BME280;21627;48.216;16.482;2023-02-18T08:40:20;100172.84;;;14.19;81.04
35519;BME280;21627;48.216;16.482;2023-02-18T08:42:47;100176.22;;;14.26;81.01
35519;BME280;21627;48.216;16.482;2023-02-18T08:45:15;100165.06;;;14.13;81.51
35519;BME280;21627;48.216;16.482;2023-02-18T08:47:42;100167.75;;;14.04;81.71
35519;BME280;21627;48.216;16.482;2023-02-18T08:50:29;100173.69;;;14.18;81.56
35519;BME280;21627;48.216;16.482;2023-02-18T08:52:57;100161.53;;;14.20;81.85
35519;BME280;21627;48.216;16.482;2023-02-18T08:55:28;100168.41;;;14.27;81.84
35519;BME280;21627;48.216;16.482;2023-02-18T08:58:00;100164.94;;;14.30;81.64
35519;BME280;21627;48.216;16.482;2023-02-18T09:00:27;100170.94;;;14.34;81.55
35519;BME280;21627;48.216;16.482;2023-02-18T09:02:54;100162.47;;;14.16;81.09
35519;BME280;21627;48.216;16.482;2023-02-18T09:05:21;100165.03;;;14.18;81.65
35519;BME280;21627;48.216;16.482;2023-02-18T09:07:49;100159.81;;;14.19;82.64
35519;BME280;21627;48.216;16.482;2023-02-18T09:10:16;100169.28;;;14.28;82.18
35519;BME280;21627;48.216;16.482;2023-02-18T09:12:43;100170.19;;;14.24;81.98
35519;BME280;21627;48.216;16.482;2023-02-18T09:15:11;100164.94;;;14.30;82.19
35519;BME280;21627;48.216;16.482;2023-02-18T09:17:38;100163.13;;;14.38;80.90
35519;BME280;21627;48.216;16.482;2023-02-18T09:20:06;100165.53;;;14.64;81.00
35519;BME280;21627;48.216;16.482;2023-02-18T09:22:33;100155.97;;;14.63;80.42
35519;BME280;21627;48.216;16.482;2023-02-18T09:25:05;100171.34;;;14.89;79.17
35519;BME280;21627;48.216;16.482;2023-02-18T09:27:33;100173.91;;;14.92;78.79
35519;BME280;21627;48.216;16.482;2023-02-18T09:30:01;100177.56;;;14.75;77.52
35519;BME280;21627;48.216;16.482;2023-02-18T09:32:28;100163.00;;;14.55;78.71
35519;BME280;21627;48.216;16.482;2023-02-18T09:35:03;100162.16;;;14.48;80.28
35519;BME280;21627;48.216;16.482;2023-02-18T09:37:33;100169.94;;;14.52;79.99
35519;BME280;21627;48.216;16.482;2023-02-18T09:40:01;100176.94;;;14.46;80.07
35519;BME280;21627;48.216;16.482;2023-02-18T09:42:31;100175.22;;;14.44;79.92
35519;BME280;21627;48.216;16.482;2023-02-18T09:45:04;100169.16;;;14.42;80.18
35519;BME280;21627;48.216;16.482;2023-02-18T09:47:41;100170.91;;;14.41;80.41
35519;BME280;21627;48.216;16.482;2023-02-18T09:50:38;100169.19;;;14.39;80.93
35519;BME280;21627;48.216;16.482;2023-02-18T09:53:05;100160.50;;;14.41;80.19
35519;BME280;21627;48.216;16.482;2023-02-18T09:55:38;100176.16;;;14.37;80.95
35519;BME280;21627;48.216;16.482;2023-02-18T09:58:17;100164.03;;;14.33;80.40
35519;BME280;21627;48.216;16.482;2023-02-18T10:01:05;100178.03;;;14.19;81.76
35519;BME280;21627;48.216;16.482;2023-02-18T10:03:37;100173.69;;;14.20;80.61
35519;BME280;21627;48.216;16.482;2023-02-18T10:06:29;100177.22;;;14.13;81.02
35519;BME280;21627;48.216;16.482;2023-02-18T10:09:05;100168.63;;;14.00;81.75
35519;BME280;21627;48.216;16.482;2023-02-18T10:11:43;100156.50;;;14.02;81.11
35519;BME280;21627;48.216;16.482;2023-02-18T10:14:13;100156.53;;;13.97;81.59
35519;BME280;21627;48.216;16.482;2023-02-18T10:16:43;100162.63;;;13.90;81.85
35519;BME280;21627;48.216;16.482;2023-02-18T10:19:51;100161.59;;;14.14;81.01
35519;BME280;21627;48.216;16.482;2023-02-18T10:22:20;100150.47;;;13.95;81.11
35519;BME280;21627;48.216;16.482;2023-02-18T10:25:18;100150.47;;;13.97;80.97
35519;BME280;21627;48.216;16.482;2023-02-18T10:27:48;100164.38;;;13.91;81.74
35519;BME280;21627;48.216;16.482;2023-02-18T10:30:23;100159.13;;;13.96;80.74
35519;BME280;21627;48.216;16.482;2023-02-18T10:36:20;100169.69;;;13.74;81.92
35519;BME280;21627;48.216;16.482;2023-02-18T10:50:39;100143.66;;;13.77;81.46
35519;BME280;21627;48.216;16.482;2023-02-18T10:53:34;100127.19;;;13.80;80.56
35519;BME280;21627;48.216;16.482;2023-02-18T10:56:05;100134.09;;;13.84;79.72
35519;BME280;21627;48.216;16.482;2023-02-18T11:01:16;100102.09;;;13.77;79.92
35519;BME280;21627;48.216;16.482;2023-02-18T11:06:43;100109.72;;;13.99;79.23
35519;BME280;21627;48.216;16.482;2023-02-18T11:09:40;100116.69;;;13.94;80.58
35519;BME280;21627;48.216;16.482;2023-02-18T11:12:45;100111.41;;;14.03;78.16
35519;BME280;21627;48.216;16.482;2023-02-18T11:15:25;100098.41;;;14.03;78.04
35519;BME280;21627;48.216;16.482;2023-02-18T11:18:10;100099.25;;;14.06;78.34
35519;BME280;21627;48.216;16.482;2023-02-18T11:20:39;100081.97;;;13.98;78.50
35519;BME280;21627;48.216;16.482;2023-02-18T11:25:37;100079.25;;;14.13;76.77
35519;BME280;21627;48.216;16.482;2023-02-18T11:28:41;100067.94;;;14.19;76.33
35519;BME280;21627;48.216;16.482;2023-02-18T11:31:21;100060.16;;;14.16;76.37
35519;BME280;21627;48.216;16.482;2023-02-18T11:33:58;100061.03;;;14.15;76.45
35519;BME280;21627;48.216;16.482;2023-02-18T11:36:34;100064.34;;;14.31;75.94
35519;BME280;21627;48.216;16.482;2023-02-18T11:39:26;100054.88;;;14.25;76.00
35519;BME280;21627;48.216;16.482;2023-02-18T11:42:05;100038.44;;;14.21;76.18
35519;BME280;21627;48.216;16.482;2023-02-18T11:44:39;100039.13;;;14.36;75.90
35519;BME280;21627;48.216;16.482;2023-02-18T11:49:42;100033.59;;;14.69;74.52
35519;BME280;21627;48.216;16.482;2023-02-18T11:52:46;100010.63;;;15.01;72.16
35519;BME280;21627;48.216;16.482;2023-02-18T11:55:23;100021.44;;;15.32;71.00
35519;BME280;21627;48.216;16.482;2023-02-18T11:58:05;100015.97;;;15.49;68.36
35519;BME280;21627;48.216;16.482;2023-02-18T12:00:43;100013.22;;;15.58;68.65
35519;BME280;21627;48.216;16.482;2023-02-18T12:06:00;100000.97;;;15.63;66.76
35519;BME280;21627;48.216;16.482;2023-02-18T12:08:41;100009.78;;;15.57;66.97
35519;BME280;21627;48.216;16.482;2023-02-18T12:11:26;99993.47;;;15.45;66.69
35519;BME280;21627;48.216;16.482;2023-02-18T12:13:57;99975.38;;;15.35;66.91
35519;BME280;21627;48.216;16.482;2023-02-18T12:16:56;99975.22;;;15.45;65.96
35519;BME280;21627;48.216;16.482;2023-02-18T12:46:20;99933.03;;;17.71;53.67
35519;BME280;21627;48.216;16.482;2023-02-18T12:49:09;99926.16;;;17.67;54.44
35519;BME280;21627;48.216;16.482;2023-02-18T12:52:21;99921.19;;;17.24;54.90
35519;BME280;21627;48.216;16.482;2023-02-18T13:12:59;99888.63;;;19.17;49.52
35519;BME280;21627;48.216;16.482;2023-02-18T13:15:45;99874.34;;;19.77;49.03
35519;BME280;21627;48.216;16.482;2023-02-18T13:18:21;99862.16;;;19.50;47.80
35519;BME280;21627;48.216;16.482;2023-02-18T13:20:58;99863.34;;;18.59;48.65
35519;BME280;21627;48.216;16.482;2023-02-18T13:23:33;99841.66;;;18.28;50.14
35519;BME280;21627;48.216;16.482;2023-02-18T13:26:05;99854.38;;;18.10;51.04
35519;BME280;21627;48.216;16.482;2023-02-18T13:32:08;99854.44;;;17.43;51.54
35519;BME280;21627;48.216;16.482;2023-02-18T13:34:47;99834.31;;;17.14;51.56
35519;BME280;21627;48.216;16.482;2023-02-18T13:40:25;99837.72;;;16.83;51.89
35519;BME280;21627;48.216;16.482;2023-02-18T13:46:20;99821.56;;;16.64;52.55
35519;BME280;21627;48.216;16.482;2023-02-18T13:51:37;99819.63;;;16.35;53.25
35519;BME280;21627;48.216;16.482;2023-02-18T13:59:32;99812.31;;;17.23;50.26
35519;BME280;21627;48.216;16.482;2023-02-18T14:04:54;99795.22;;;17.11;50.31
35519;BME280;21627;48.216;16.482;2023-02-18T14:07:36;99797.63;;;17.83;48.45
35519;BME280;21627;48.216;16.482;2023-02-18T14:20:47;99777.06;;;19.58;43.88
35519;BME280;21627;48.216;16.482;2023-02-18T14:26:07;99765.00;;;19.53;43.41
35519;BME280;21627;48.216;16.482;2023-02-18T14:28:38;99777.53;;;19.70;43.13
35519;BME280;21627;48.216;16.482;2023-02-18T14:31:48;99765.19;;;19.73;43.36
35519;BME280;21627;48.216;16.482;2023-02-18T14:40:15;99741.97;;;20.08;41.75
35519;BME280;21627;48.216;16.482;2023-02-18T14:43:26;99739.94;;;19.93;42.76
35519;BME280;21627;48.216;16.482;2023-02-18T14:51:57;99721.13;;;19.34;42.89
35519;BME280;21627;48.216;16.482;2023-02-18T14:54:26;99714.25;;;19.07;43.08
35519;BME280;21627;48.216;16.482;2023-02-18T14:57:02;99723.19;;;18.76;43.82
35519;BME280;21627;48.216;16.482;2023-02-18T14:59:39;99742.50;;;18.45;44.40
35519;BME280;21627;48.216;16.482;2023-02-18T15:02:36;99728.88;;;18.07;45.63
35519;BME280;21627;48.216;16.482;2023-02-18T15:05:23;99722.28;;;17.94;45.89
35519;BME280;21627;48.216;16.482;2023-02-18T15:08:06;99735.00;;;17.77;46.79
35519;BME280;21627;48.216;16.482;2023-02-18T15:10:49;99715.16;;;17.40;47.08
35519;BME280;21627;48.216;16.482;2023-02-18T15:13:41;99715.53;;;17.26;48.32
35519;BME280;21627;48.216;16.482;2023-02-18T15:16:32;99714.28;;;17.08;49.35
35519;BME280;21627;48.216;16.482;2023-02-18T15:19:16;99725.47;;;16.80;49.37
35519;BME280;21627;48.216;16.482;2023-02-18T15:21:53;99729.28;;;16.65;50.11
35519;BME280;21627;48.216;16.482;2023-02-18T15:24:34;99723.91;;;16.73;50.63
35519;BME280;21627;48.216;16.482;2023-02-18T15:27:17;99724.25;;;16.58;50.17
35519;BME280;21627;48.216;16.482;2023-02-18T15:29:57;99708.69;;;16.55;51.08
35519;BME280;21627;48.216;16.482;2023-02-18T15:32:27;99697.75;;;16.40;51.34
35519;BME280;21627;48.216;16.482;2023-02-18T15:34:59;99702.16;;;16.38;53.01
35519;BME280;21627;48.216;16.482;2023-02-18T15:37:29;99701.50;;;16.29;52.15
35519;BME280;21627;48.216;16.482;2023-02-18T15:39:57;99707.69;;;16.25;52.05
35519;BME280;21627;48.216;16.482;2023-02-18T15:42:26;99699.22;;;16.15;52.40
35519;BME280;21627;48.216;16.482;2023-02-18T15:45:15;99691.38;;;16.15;52.29
35519;BME280;21627;48.216;16.482;2023-02-18T15:47:52;99705.66;;;16.00;52.74
35519;BME280;21627;48.216;16.482;2023-02-18T15:53:13;99689.72;;;15.75;53.36
35519;BME280;21627;48.216;16.482;2023-02-18T15:55:46;99703.72;;;15.71;53.38